createdAt,value
2023-03-08T00:00:27.440Z,96357.00
2023-03-08T00:05:48.971Z,96357.00
2023-03-08T00:11:12.601Z,96349.00
2023-03-08T00:16:34.516Z,96364.00
2023-03-08T00:21:56.561Z,96358.00
2023-03-08T00:27:18.155Z,96369.00
2023-03-08T00:32:40.073Z,96371.00
2023-03-08T00:38:01.400Z,96372.00
2023-03-08T00:43:23.458Z,96378.00
2023-03-08T00:48:44.912Z,96376.00
2023-03-08T00:54:06.732Z,96381.00
2023-03-08T00:59:28.393Z,96382.00
2023-03-08T01:04:51.060Z,96399.00
2023-03-08T01:10:12.999Z,96387.00
2023-03-08T01:15:41.950Z,96388.00
2023-03-08T01:21:04.974Z,96389.00
2023-03-08T01:26:28.134Z,96381.00
2023-03-08T01:31:50.299Z,96363.00
2023-03-08T01:37:11.890Z,96382.00
2023-03-08T01:42:37.967Z,96376.00
2023-03-08T01:47:59.850Z,96383.00
2023-03-08T01:53:42.686Z,96388.00
2023-03-08T01:59:04.756Z,96394.00
2023-03-08T02:04:27.729Z,96381.00
2023-03-08T02:09:50.906Z,96382.00
2023-03-08T02:15:15.482Z,96371.00
2023-03-08T02:20:40.798Z,96369.00
2023-03-08T02:26:05.601Z,96381.00
2023-03-08T02:31:26.944Z,96388.00
2023-03-08T02:36:48.552Z,96378.00
2023-03-08T02:42:10.396Z,96383.00
2023-03-08T02:47:31.822Z,96382.00
2023-03-08T02:52:53.595Z,96370.00
2023-03-08T02:58:15.157Z,96370.00
2023-03-08T03:03:36.602Z,96368.00
2023-03-08T03:08:58.277Z,96370.00
2023-03-08T03:14:20.972Z,96377.00
2023-03-08T03:19:45.142Z,96385.00
2023-03-08T03:25:07.227Z,96373.00
2023-03-08T03:30:29.542Z,96396.00
2023-03-08T03:35:51.678Z,96393.00
2023-03-08T03:41:16.288Z,96394.00
2023-03-08T03:46:39.045Z,96378.00
2023-03-08T03:52:03.399Z,96391.00
2023-03-08T03:57:35.440Z,96396.00
2023-03-08T04:02:57.062Z,96403.00
2023-03-08T04:08:20.193Z,96395.00
2023-03-08T04:13:42.797Z,96405.00
2023-03-08T04:19:11.875Z,96407.00
2023-03-08T04:24:36.581Z,96397.00
2023-03-08T04:30:04.393Z,96400.00
2023-03-08T04:35:26.786Z,96396.00
2023-03-08T04:41:02.098Z,96399.00
2023-03-08T04:46:30.260Z,96397.00
2023-03-08T04:51:52.929Z,96400.00
2023-03-08T04:57:16.076Z,96392.00
2023-03-08T05:02:37.665Z,96393.00
2023-03-08T05:08:05.415Z,96388.00
2023-03-08T05:13:35.519Z,96401.00
2023-03-08T05:18:57.438Z,96405.00
2023-03-08T05:24:25.054Z,96394.00
2023-03-08T05:29:46.646Z,96416.00
2023-03-08T05:35:09.719Z,96403.00
2023-03-08T05:40:33.415Z,96392.00
2023-03-08T05:45:59.330Z,96389.00
2023-03-08T05:51:22.819Z,96393.00
2023-03-08T05:56:44.816Z,96392.00
2023-03-08T06:02:16.596Z,96400.00
2023-03-08T06:07:47.877Z,96394.00
2023-03-08T06:13:09.876Z,96396.00
2023-03-08T06:18:31.681Z,96401.00
2023-03-08T06:23:53.501Z,96393.00
2023-03-08T06:29:14.990Z,96386.00
2023-03-08T06:34:36.768Z,96384.00
2023-03-08T06:39:58.371Z,96384.00
2023-03-08T06:45:20.479Z,96391.00
2023-03-08T06:50:42.447Z,96391.00
2023-03-08T06:56:06.889Z,96392.00
2023-03-08T07:01:29.979Z,96402.00
2023-03-08T07:06:51.613Z,96402.00
2023-03-08T07:12:13.184Z,96396.00
2023-03-08T07:17:35.765Z,96389.00
2023-03-08T07:22:57.622Z,96389.00
2023-03-08T07:28:19.562Z,96384.00
2023-03-08T07:33:41.042Z,96385.00
2023-03-08T07:39:02.854Z,96386.00
2023-03-08T07:44:24.732Z,96386.00
2023-03-08T07:49:46.396Z,96381.00
2023-03-08T07:55:09.252Z,96370.00
2023-03-08T08:00:31.199Z,96371.00
2023-03-08T08:05:52.959Z,96364.00
2023-03-08T08:11:16.967Z,96362.00
2023-03-08T08:16:38.506Z,96370.00
2023-03-08T08:22:00.447Z,96364.00
2023-03-08T08:27:21.935Z,96360.00
2023-03-08T08:32:43.408Z,96354.00
2023-03-08T08:38:05.032Z,96350.00
2023-03-08T08:43:26.667Z,96334.00
2023-03-08T08:48:48.405Z,96334.00
2023-03-08T08:54:10.080Z,96327.00
2023-03-08T08:59:31.552Z,96315.00
2023-03-08T09:04:53.288Z,96300.00
2023-03-08T09:10:14.755Z,96291.00
2023-03-08T09:15:37.469Z,96285.00
2023-03-08T09:21:01.164Z,96284.00
2023-03-08T09:26:22.870Z,96267.00
2023-03-08T09:31:45.569Z,96265.00
2023-03-08T09:37:08.476Z,96249.00
2023-03-08T09:42:34.624Z,96248.00
2023-03-08T09:48:19.952Z,96240.00
2023-03-08T09:53:54.903Z,96243.00
2023-03-08T09:59:28.407Z,96233.00
2023-03-08T10:05:11.862Z,96222.00
2023-03-08T10:10:53.446Z,96227.00
2023-03-08T10:16:32.660Z,96218.00
2023-03-08T10:21:57.357Z,96206.00
2023-03-08T10:27:23.704Z,96200.00
2023-03-08T10:32:48.071Z,96198.00
2023-03-08T10:38:17.185Z,96181.00
2023-03-08T10:43:45.039Z,96189.00
2023-03-08T10:49:27.965Z,96177.00
2023-03-08T10:55:07.266Z,96162.00
2023-03-08T11:00:38.036Z,96147.00
2023-03-08T11:06:05.881Z,96133.00
2023-03-08T11:11:28.004Z,96128.00
2023-03-08T11:16:52.862Z,96115.00
2023-03-08T11:22:36.240Z,96102.00
2023-03-08T11:28:32.112Z,96086.00
2023-03-08T11:34:11.882Z,96066.00
2023-03-08T11:39:46.314Z,96063.00
2023-03-08T11:45:31.802Z,96070.00
2023-03-08T11:51:27.096Z,96068.00
2023-03-08T11:56:58.702Z,96050.00
2023-03-08T12:02:34.869Z,96053.00
2023-03-08T12:08:22.255Z,96044.00
2023-03-08T12:13:57.383Z,96039.00
2023-03-08T12:19:35.950Z,96036.00
2023-03-08T12:25:24.973Z,96022.00
2023-03-08T12:31:18.128Z,96019.00
2023-03-08T12:36:47.826Z,96019.00
2023-03-08T12:42:15.234Z,96011.00
2023-03-08T12:47:37.168Z,95999.00
2023-03-08T12:52:59.065Z,96003.00
2023-03-08T12:58:22.524Z,95991.00
2023-03-08T13:03:44.655Z,95972.00
2023-03-08T13:09:13.857Z,95976.00
2023-03-08T13:15:00.534Z,95967.00
2023-03-08T13:20:28.863Z,95967.00
2023-03-08T13:26:10.782Z,95954.00
2023-03-08T13:31:33.086Z,95948.00
2023-03-08T13:36:55.204Z,95927.00
2023-03-08T13:42:16.808Z,95916.00
2023-03-08T13:47:41.038Z,95914.00
2023-03-08T13:53:04.367Z,95907.00
2023-03-08T13:58:34.888Z,95911.00
2023-03-08T14:04:10.723Z,95903.00
2023-03-08T14:09:33.650Z,95886.00
2023-03-08T14:15:02.626Z,95887.00
2023-03-08T14:20:25.768Z,95886.00
2023-03-08T14:25:57.197Z,95868.00
2023-03-08T14:31:26.860Z,95874.00
2023-03-08T14:37:02.482Z,95866.00
2023-03-08T14:42:48.548Z,95854.00
2023-03-08T14:48:28.900Z,95850.00
2023-03-08T14:54:33.208Z,95848.00
2023-03-08T15:00:02.509Z,95838.00
2023-03-08T15:05:29.200Z,95840.00
2023-03-08T15:10:51.726Z,95832.00
2023-03-08T15:16:14.613Z,95833.00
2023-03-08T15:21:38.287Z,95820.00
2023-03-08T15:26:59.661Z,95824.00
2023-03-08T15:32:21.362Z,95803.00
2023-03-08T15:37:44.111Z,95795.00
2023-03-08T15:43:05.601Z,95795.00
2023-03-08T15:48:27.252Z,95791.00
2023-03-08T15:53:49.784Z,95788.00
2023-03-08T15:59:11.512Z,95804.00
2023-03-08T16:04:33.170Z,95779.00
2023-03-08T16:09:54.861Z,95792.00
2023-03-08T16:15:16.691Z,95784.00
2023-03-08T16:20:41.373Z,95801.00
2023-03-08T16:26:15.392Z,95791.00
2023-03-08T16:31:38.356Z,95786.00
2023-03-08T16:37:00.348Z,95797.00
2023-03-08T16:42:22.911Z,95784.00
2023-03-08T16:47:44.481Z,95787.00
2023-03-08T16:53:06.921Z,95775.00
2023-03-08T16:58:29.097Z,95782.00
2023-03-08T17:03:50.522Z,95783.00
2023-03-08T17:09:12.894Z,95774.00
2023-03-08T17:14:35.070Z,95769.00
2023-03-08T17:19:58.268Z,95759.00
2023-03-08T17:25:19.849Z,95756.00
2023-03-08T17:30:42.012Z,95764.00
2023-03-08T17:36:05.432Z,95751.00
2023-03-08T17:41:27.287Z,95757.00
2023-03-08T17:46:48.899Z,95761.00
2023-03-08T17:52:10.796Z,95766.00
2023-03-08T17:57:32.569Z,95772.00
2023-03-08T18:02:54.683Z,95769.00
2023-03-08T18:08:16.575Z,95769.00
2023-03-08T18:13:40.601Z,95763.00
2023-03-08T18:19:03.625Z,95768.00
2023-03-08T18:24:27.085Z,95771.00
2023-03-08T18:29:48.735Z,95775.00
2023-03-08T18:35:13.402Z,95774.00
2023-03-08T18:40:35.118Z,95777.00
2023-03-08T18:45:57.611Z,95760.00
2023-03-08T18:51:19.108Z,95766.00
2023-03-08T18:56:40.598Z,95759.00
2023-03-08T19:02:02.558Z,95760.00
2023-03-08T19:07:24.116Z,95755.00
2023-03-08T19:12:45.793Z,95759.00
2023-03-08T19:18:08.074Z,95759.00
2023-03-08T19:23:29.678Z,95759.00
2023-03-08T19:28:51.373Z,95756.00
2023-03-08T19:34:13.788Z,95760.00
2023-03-08T19:39:38.279Z,95742.00
2023-03-08T19:44:59.853Z,95748.00
2023-03-08T19:50:21.412Z,95761.00
2023-03-08T19:55:54.435Z,95758.00
2023-03-08T20:01:18.830Z,95757.00
2023-03-08T20:06:45.709Z,95758.00
2023-03-08T20:12:07.950Z,95750.00
2023-03-08T20:17:32.193Z,95762.00
2023-03-08T20:22:53.831Z,95762.00
2023-03-08T20:28:15.451Z,95773.00
2023-03-08T20:33:37.208Z,95761.00
2023-03-08T20:38:59.378Z,95759.00
2023-03-08T20:44:21.025Z,95767.00
2023-03-08T20:49:42.712Z,95758.00
2023-03-08T20:55:05.140Z,95745.00
2023-03-08T21:00:27.408Z,95744.00
2023-03-08T21:05:48.959Z,95745.00
2023-03-08T21:11:10.815Z,95748.00
2023-03-08T21:16:33.596Z,95734.00
2023-03-08T21:21:55.235Z,95740.00
2023-03-08T21:27:16.972Z,95733.00
2023-03-08T21:32:38.650Z,95729.00
2023-03-08T21:38:00.522Z,95725.00
2023-03-08T21:43:23.997Z,95714.00
2023-03-08T21:48:46.284Z,95716.00
2023-03-08T21:54:07.752Z,95708.00
2023-03-08T21:59:29.522Z,95704.00
2023-03-08T22:04:51.192Z,95704.00
2023-03-08T22:10:14.908Z,95694.00
2023-03-08T22:15:36.351Z,95683.00
2023-03-08T22:20:58.555Z,95681.00
2023-03-08T22:26:21.237Z,95683.00
2023-03-08T22:31:42.889Z,95674.00
2023-03-08T22:37:06.254Z,95659.00
2023-03-08T22:42:28.177Z,95666.00
2023-03-08T22:47:52.203Z,95670.00
2023-03-08T22:53:13.616Z,95670.00
2023-03-08T22:58:35.281Z,95654.00
2023-03-08T23:03:59.714Z,95656.00
2023-03-08T23:09:22.361Z,95658.00
2023-03-08T23:14:45.357Z,95666.00
2023-03-08T23:20:10.204Z,95646.00
2023-03-08T23:25:31.945Z,95666.00
2023-03-08T23:30:53.475Z,95651.00
2023-03-08T23:36:17.784Z,95640.00
2023-03-08T23:41:40.794Z,95634.00
2023-03-08T23:47:02.530Z,95621.00
2023-03-08T23:52:24.203Z,95635.00
2023-03-08T23:57:45.858Z,95620.00
